createdAt,value
2022-10-23T00:01:13.668Z,90.29
2022-10-23T00:03:41.364Z,88.45
2022-10-23T00:06:08.762Z,87.45
2022-10-23T00:08:36.121Z,84.81
2022-10-23T00:11:13.554Z,83.71
2022-10-23T00:13:41.127Z,83.78
2022-10-23T00:16:08.931Z,82.93
2022-10-23T00:18:36.518Z,81.62
2022-10-23T00:21:04.366Z,82.48
2022-10-23T00:23:31.959Z,81.22
2022-10-23T00:26:00.249Z,78.07
2022-10-23T00:28:27.822Z,77.30
2022-10-23T00:30:55.421Z,76.98
2022-10-23T00:33:22.775Z,76.16
2022-10-23T00:35:50.108Z,74.86
2022-10-23T00:38:17.709Z,75.65
2022-10-23T00:40:47.132Z,75.18
2022-10-23T00:43:19.156Z,74.24
2022-10-23T00:45:46.788Z,74.19
2022-10-23T00:48:14.314Z,74.26
2022-10-23T00:50:41.734Z,73.76
2022-10-23T00:53:09.890Z,72.24
2022-10-23T00:55:38.384Z,72.82
2022-10-23T00:58:06.620Z,73.99
2022-10-23T01:00:54.063Z,72.80
2022-10-23T01:03:24.133Z,74.73
2022-10-23T01:06:15.302Z,75.25
2022-10-23T01:08:50.451Z,75.88
2022-10-23T01:11:37.640Z,75.46
2022-10-23T01:14:16.725Z,74.62
2022-10-23T01:17:08.029Z,74.25
2022-10-23T01:20:02.489Z,72.42
2022-10-23T01:23:08.620Z,72.73
2022-10-23T01:25:44.697Z,73.73
2022-10-23T01:28:13.117Z,73.41
2022-10-23T01:33:20.098Z,80.12
2022-10-23T01:36:01.865Z,86.55
2022-10-23T01:38:59.102Z,88.43
2022-10-23T01:41:31.945Z,94.01
2022-10-23T01:44:04.693Z,92.97
2022-10-23T01:46:35.350Z,92.57
2022-10-23T01:49:04.211Z,91.71
2022-10-23T01:54:01.947Z,88.08
2022-10-23T01:56:33.357Z,87.25
2022-10-23T01:59:03.821Z,86.92
2022-10-23T02:01:31.996Z,83.24
2022-10-23T02:04:00.036Z,81.44
2022-10-23T02:06:27.468Z,81.19
2022-10-23T02:08:54.793Z,79.78
2022-10-23T02:11:22.442Z,78.95
2022-10-23T02:13:52.556Z,78.91
2022-10-23T02:16:47.773Z,78.53
2022-10-23T02:19:24.500Z,76.79
2022-10-23T02:21:56.056Z,76.64
2022-10-23T02:24:36.564Z,75.64
2022-10-23T02:27:08.998Z,75.56
2022-10-23T02:29:42.862Z,75.58
2022-10-23T02:32:10.331Z,75.05
2022-10-23T02:34:37.936Z,74.50
2022-10-23T02:37:05.310Z,74.41
2022-10-23T02:39:32.760Z,74.07
2022-10-23T02:42:20.398Z,74.40
2022-10-23T02:45:06.566Z,73.02
2022-10-23T02:47:42.093Z,72.89
2022-10-23T02:50:29.733Z,72.88
2022-10-23T02:53:18.301Z,72.73
2022-10-23T02:56:00.832Z,72.48
2022-10-23T02:58:37.434Z,72.54
2022-10-23T03:01:08.345Z,72.32
2022-10-23T03:03:44.420Z,72.27
2022-10-23T03:06:11.814Z,72.12
2022-10-23T03:08:43.876Z,71.66
2022-10-23T03:11:11.289Z,71.61
2022-10-23T03:13:38.932Z,71.39
2022-10-23T03:16:06.281Z,72.16
2022-10-23T03:18:34.446Z,72.96
2022-10-23T03:21:02.492Z,74.83
2022-10-23T03:23:30.110Z,77.08
2022-10-23T03:25:57.593Z,76.08
2022-10-23T03:28:26.244Z,75.03
2022-10-23T03:30:53.571Z,74.65
2022-10-23T03:33:21.021Z,76.29
2022-10-23T03:35:49.070Z,75.95
2022-10-23T03:38:16.628Z,75.99
2022-10-23T03:40:44.374Z,75.79
2022-10-23T03:43:12.807Z,76.34
2022-10-23T03:45:40.211Z,76.19
2022-10-23T03:48:07.576Z,75.10
2022-10-23T03:50:35.539Z,73.81
2022-10-23T03:53:02.908Z,73.58
2022-10-23T03:55:30.242Z,72.67
2022-10-23T03:57:57.821Z,72.91
2022-10-23T04:00:25.178Z,73.37
2022-10-23T04:02:52.749Z,72.71
2022-10-23T04:05:20.079Z,72.45
2022-10-23T04:07:49.597Z,72.04
2022-10-23T04:10:17.239Z,72.24
2022-10-23T04:12:45.076Z,72.01
2022-10-23T04:15:12.801Z,71.96
2022-10-23T04:17:41.696Z,71.82
2022-10-23T04:20:10.094Z,71.11
2022-10-23T04:22:37.447Z,71.49
2022-10-23T04:25:05.231Z,72.34
2022-10-23T04:27:34.397Z,72.02
2022-10-23T04:30:03.646Z,71.26
2022-10-23T04:32:31.523Z,70.95
2022-10-23T04:34:58.925Z,71.57
2022-10-23T04:37:26.434Z,71.44
2022-10-23T04:39:54.091Z,71.80
2022-10-23T04:42:21.584Z,71.47
2022-10-23T04:44:48.977Z,70.84
2022-10-23T04:47:16.585Z,70.70
2022-10-23T04:49:45.302Z,71.36
2022-10-23T04:52:18.031Z,71.87
2022-10-23T04:54:45.722Z,71.69
2022-10-23T04:57:14.391Z,71.31
2022-10-23T04:59:44.111Z,71.24
2022-10-23T05:02:11.688Z,70.85
2022-10-23T05:04:39.102Z,70.92
2022-10-23T05:07:11.848Z,71.00
2022-10-23T05:09:40.180Z,71.15
2022-10-23T05:12:07.707Z,70.99
2022-10-23T05:14:35.898Z,70.67
2022-10-23T05:17:08.755Z,71.13
2022-10-23T05:19:39.261Z,70.94
2022-10-23T05:22:06.911Z,70.63
2022-10-23T05:24:42.301Z,69.59
2022-10-23T05:27:10.345Z,69.66
2022-10-23T05:29:39.757Z,70.86
2022-10-23T05:32:07.343Z,71.50
2022-10-23T05:34:35.470Z,70.83
2022-10-23T05:37:03.146Z,70.43
2022-10-23T05:39:30.890Z,71.12
2022-10-23T05:42:00.762Z,70.36
2022-10-23T05:44:28.098Z,71.48
2022-10-23T05:46:56.238Z,70.66
2022-10-23T05:49:25.004Z,70.27
2022-10-23T05:51:52.658Z,69.62
2022-10-23T05:54:20.488Z,70.75
2022-10-23T05:56:48.354Z,70.03
2022-10-23T05:59:20.467Z,70.34
2022-10-23T06:01:50.823Z,69.91
2022-10-23T06:04:19.097Z,70.96
2022-10-23T06:06:47.727Z,70.00
2022-10-23T06:09:15.342Z,69.43
2022-10-23T06:11:43.073Z,69.72
2022-10-23T06:14:10.796Z,69.44
2022-10-23T06:16:38.376Z,69.14
2022-10-23T06:19:06.012Z,69.19
2022-10-23T06:21:36.752Z,69.33
2022-10-23T06:24:06.332Z,68.63
2022-10-23T06:26:34.293Z,68.23
2022-10-23T06:29:01.945Z,68.03
2022-10-23T06:31:29.901Z,67.70
2022-10-23T06:33:58.430Z,67.43
2022-10-23T06:36:25.997Z,67.50
2022-10-23T06:38:56.367Z,67.10
2022-10-23T06:41:24.836Z,67.38
2022-10-23T06:43:53.381Z,67.04
2022-10-23T06:46:21.090Z,67.20
2022-10-23T06:48:49.479Z,66.67
2022-10-23T06:51:17.188Z,67.61
2022-10-23T06:53:45.099Z,68.12
2022-10-23T06:56:13.328Z,67.94
2022-10-23T06:58:40.941Z,67.95
2022-10-23T07:01:10.858Z,68.31
2022-10-23T07:03:39.579Z,68.07
2022-10-23T07:06:08.386Z,67.85
2022-10-23T07:08:35.830Z,67.58
2022-10-23T07:11:08.179Z,67.22
2022-10-23T07:13:35.887Z,70.68
2022-10-23T07:16:18.958Z,75.55
2022-10-23T07:18:46.805Z,75.25
2022-10-23T07:21:16.585Z,76.82
2022-10-23T07:23:44.291Z,73.70
2022-10-23T07:26:16.948Z,75.17
2022-10-23T07:28:45.494Z,74.56
2022-10-23T07:31:16.536Z,74.78
2022-10-23T07:33:45.778Z,74.40
2022-10-23T07:36:14.037Z,77.79
2022-10-23T07:38:41.478Z,75.30
2022-10-23T07:41:11.608Z,80.48
2022-10-23T07:43:39.856Z,78.69
2022-10-23T07:46:09.763Z,78.51
2022-10-23T07:48:38.410Z,82.94
2022-10-23T07:51:14.390Z,81.66
2022-10-23T07:53:42.517Z,81.13
2022-10-23T07:56:30.316Z,82.53
2022-10-23T07:58:59.680Z,78.56
2022-10-23T08:01:39.343Z,80.27
2022-10-23T08:04:07.115Z,82.51
2022-10-23T08:06:35.724Z,79.71
2022-10-23T08:09:06.266Z,77.78
2022-10-23T08:11:35.881Z,77.93
2022-10-23T08:14:04.693Z,75.50
2022-10-23T08:16:34.305Z,74.22
2022-10-23T08:19:06.046Z,75.51
2022-10-23T08:21:34.295Z,74.15
2022-10-23T08:24:02.050Z,74.16
2022-10-23T08:26:30.018Z,72.27
2022-10-23T08:29:00.426Z,72.07
2022-10-23T08:31:28.284Z,71.09
2022-10-23T08:33:57.247Z,71.18
2022-10-23T08:36:28.173Z,71.45
2022-10-23T08:38:56.466Z,71.41
2022-10-23T08:41:43.757Z,70.91
2022-10-23T08:44:25.147Z,70.63
2022-10-23T08:47:17.638Z,71.10
2022-10-23T08:49:51.903Z,71.04
2022-10-23T08:52:32.291Z,70.53
2022-10-23T08:55:02.816Z,69.90
2022-10-23T08:57:39.991Z,70.26
2022-10-23T09:00:15.110Z,69.95
2022-10-23T09:02:45.145Z,69.74
2022-10-23T09:05:21.963Z,69.62
2022-10-23T09:07:58.756Z,69.66
2022-10-23T09:10:32.401Z,69.17
2022-10-23T09:13:31.968Z,69.53
2022-10-23T09:16:14.422Z,68.92
2022-10-23T09:18:41.883Z,66.90
2022-10-23T09:21:09.899Z,67.57
2022-10-23T09:23:37.336Z,67.86
2022-10-23T09:26:11.970Z,67.29
2022-10-23T09:28:50.701Z,65.98
2022-10-23T09:31:18.840Z,64.50
2022-10-23T09:34:00.154Z,64.25
2022-10-23T09:36:29.363Z,64.29
2022-10-23T09:38:58.936Z,64.06
2022-10-23T09:41:37.267Z,64.18
2022-10-23T09:44:07.565Z,63.82
2022-10-23T09:46:46.825Z,64.03
2022-10-23T09:49:28.309Z,64.86
2022-10-23T09:52:02.897Z,65.07
2022-10-23T09:54:36.678Z,63.59
2022-10-23T09:57:24.143Z,64.17
2022-10-23T09:59:53.108Z,64.20
2022-10-23T10:02:27.383Z,63.02
2022-10-23T10:04:55.269Z,62.74
2022-10-23T10:07:28.648Z,64.48
2022-10-23T10:09:57.927Z,64.06
2022-10-23T10:12:47.387Z,63.19
2022-10-23T10:15:26.838Z,63.90
2022-10-23T10:18:03.051Z,64.23
2022-10-23T10:20:30.438Z,63.39
2022-10-23T10:23:07.332Z,62.83
2022-10-23T10:25:48.550Z,64.54
2022-10-23T10:28:36.912Z,63.54
2022-10-23T10:31:23.753Z,65.44
2022-10-23T10:34:22.145Z,65.24
2022-10-23T10:36:51.636Z,65.15
2022-10-23T10:39:38.352Z,64.84
2022-10-23T10:42:40.619Z,65.16
2022-10-23T10:45:27.097Z,65.41
2022-10-23T10:48:17.536Z,66.42
2022-10-23T10:51:20.100Z,66.99
2022-10-23T10:54:03.349Z,67.78
2022-10-23T10:56:31.804Z,65.83
2022-10-23T10:59:04.494Z,66.15
2022-10-23T11:01:35.471Z,66.54
2022-10-23T11:04:21.822Z,65.98
2022-10-23T11:06:51.249Z,65.84
2022-10-23T11:09:24.552Z,66.08
2022-10-23T11:11:51.947Z,65.88
2022-10-23T11:14:24.055Z,66.30
2022-10-23T11:16:52.434Z,66.04
2022-10-23T11:19:28.156Z,65.90
2022-10-23T11:22:37.918Z,65.53
2022-10-23T11:25:38.455Z,65.72
2022-10-23T11:28:37.613Z,64.78
2022-10-23T11:31:33.660Z,65.95
2022-10-23T11:34:31.962Z,63.30
2022-10-23T11:37:01.577Z,64.44
2022-10-23T11:39:34.728Z,64.60
2022-10-23T11:42:13.793Z,63.03
2022-10-23T11:44:53.885Z,64.10
2022-10-23T11:47:57.600Z,64.45
2022-10-23T11:50:30.410Z,63.85
2022-10-23T11:53:20.863Z,63.80
2022-10-23T11:56:14.656Z,63.03
2022-10-23T11:58:52.239Z,61.09
2022-10-23T12:01:45.511Z,59.96
2022-10-23T12:04:13.253Z,60.79
2022-10-23T12:07:00.788Z,60.73
2022-10-23T12:09:39.297Z,60.59
2022-10-23T12:12:09.537Z,60.78
2022-10-23T12:14:48.232Z,61.31
2022-10-23T12:17:24.257Z,61.29
2022-10-23T12:20:03.058Z,60.95
2022-10-23T12:23:28.116Z,60.82
2022-10-23T12:26:10.846Z,60.78
2022-10-23T12:29:01.362Z,60.25
2022-10-23T12:31:47.884Z,59.91
2022-10-23T12:34:26.878Z,58.77
2022-10-23T12:37:12.591Z,58.44
2022-10-23T12:39:40.750Z,58.46
2022-10-23T12:42:27.701Z,58.52
2022-10-23T12:44:59.405Z,58.72
2022-10-23T12:47:27.005Z,57.87
2022-10-23T12:49:54.323Z,58.31
2022-10-23T12:52:21.926Z,58.17
2022-10-23T12:54:50.927Z,58.46
2022-10-23T12:57:25.993Z,58.48
2022-10-23T13:00:10.355Z,59.92
2022-10-23T13:02:37.805Z,59.51
2022-10-23T13:05:07.346Z,61.71
2022-10-23T13:07:37.501Z,61.58
2022-10-23T13:10:06.774Z,60.94
2022-10-23T13:12:34.988Z,60.59
2022-10-23T13:15:03.470Z,60.77
2022-10-23T13:17:38.778Z,61.70
2022-10-23T13:20:18.358Z,61.04
2022-10-23T13:23:00.426Z,60.92
2022-10-23T13:25:32.756Z,60.85
2022-10-23T13:28:21.887Z,59.11
2022-10-23T13:31:22.767Z,60.12
2022-10-23T13:33:53.052Z,60.48
2022-10-23T13:36:22.523Z,62.47
2022-10-23T13:39:00.265Z,63.01
2022-10-23T13:41:29.066Z,61.09
2022-10-23T13:43:56.753Z,60.92
2022-10-23T13:46:25.654Z,60.75
2022-10-23T13:48:53.149Z,60.72
2022-10-23T13:51:22.796Z,61.11
2022-10-23T13:53:50.373Z,61.36
2022-10-23T13:56:20.036Z,62.09
2022-10-23T13:58:48.046Z,64.63
2022-10-23T14:01:25.334Z,63.23
2022-10-23T14:03:53.762Z,64.05
2022-10-23T14:06:21.156Z,63.39
2022-10-23T14:08:48.606Z,63.55
2022-10-23T14:11:17.039Z,62.91
2022-10-23T14:13:44.498Z,67.18
2022-10-23T14:16:12.481Z,66.78
2022-10-23T14:18:40.136Z,67.51
2022-10-23T14:21:08.066Z,67.08
2022-10-23T14:23:35.394Z,66.16
2022-10-23T14:26:03.844Z,65.86
2022-10-23T14:28:31.195Z,65.70
2022-10-23T14:30:58.518Z,65.99
2022-10-23T14:33:26.489Z,65.69
2022-10-23T14:35:53.820Z,65.85
2022-10-23T14:38:21.162Z,65.66
2022-10-23T14:40:48.791Z,65.94
2022-10-23T14:43:16.133Z,64.80
2022-10-23T14:45:43.478Z,66.26
2022-10-23T14:48:11.076Z,67.79
2022-10-23T14:50:42.950Z,68.01
2022-10-23T14:53:11.152Z,68.04
2022-10-23T14:55:38.475Z,67.46
2022-10-23T14:58:05.952Z,67.72
2022-10-23T15:00:33.567Z,68.82
2022-10-23T15:03:00.881Z,67.59
2022-10-23T15:05:28.268Z,68.07
2022-10-23T15:07:56.553Z,68.42
2022-10-23T15:10:23.924Z,68.21
2022-10-23T15:12:51.360Z,67.89
2022-10-23T15:15:19.070Z,69.86
2022-10-23T15:17:46.398Z,68.64
2022-10-23T15:20:13.749Z,69.14
2022-10-23T15:22:41.529Z,67.28
2022-10-23T15:25:10.550Z,68.37
2022-10-23T15:27:38.665Z,68.69
2022-10-23T15:30:06.634Z,68.77
2022-10-23T15:32:33.965Z,68.71
2022-10-23T15:35:01.325Z,69.68
2022-10-23T15:37:28.910Z,68.57
2022-10-23T15:39:59.656Z,67.90
2022-10-23T15:42:29.765Z,68.69
2022-10-23T15:44:57.076Z,68.97
2022-10-23T15:47:24.448Z,68.63
2022-10-23T15:49:52.040Z,68.79
2022-10-23T15:52:19.383Z,69.14
2022-10-23T15:54:46.761Z,68.85
2022-10-23T15:57:14.553Z,68.98
2022-10-23T15:59:41.873Z,68.59
2022-10-23T16:02:11.206Z,69.37
2022-10-23T16:04:38.892Z,69.41
2022-10-23T16:07:07.241Z,69.25
2022-10-23T16:09:34.604Z,70.52
2022-10-23T16:12:02.195Z,69.44
2022-10-23T16:14:29.503Z,69.54
2022-10-23T16:16:56.862Z,68.86
2022-10-23T16:19:24.484Z,69.62
2022-10-23T16:21:51.781Z,69.86
2022-10-23T16:24:19.098Z,69.04
2022-10-23T16:26:50.362Z,68.96
2022-10-23T16:29:17.686Z,69.57
2022-10-23T16:31:45.038Z,68.93
2022-10-23T16:34:12.639Z,68.92
2022-10-23T16:36:40.041Z,69.01
2022-10-23T16:39:08.976Z,68.66
2022-10-23T16:41:49.339Z,68.46
2022-10-23T16:44:17.311Z,68.23
2022-10-23T16:46:46.049Z,68.89
2022-10-23T16:49:14.422Z,68.41
2022-10-23T16:51:41.803Z,68.28
2022-10-23T16:54:09.630Z,67.82
2022-10-23T16:56:36.969Z,68.00
2022-10-23T16:59:04.284Z,67.32
2022-10-23T17:01:32.495Z,67.51
2022-10-23T17:03:59.987Z,67.96
2022-10-23T17:06:31.335Z,67.92
2022-10-23T17:08:59.541Z,68.36
2022-10-23T17:11:32.205Z,68.40
2022-10-23T17:14:04.821Z,68.44
2022-10-23T17:16:51.390Z,68.29
2022-10-23T17:19:40.158Z,68.02
2022-10-23T17:22:12.441Z,68.04
2022-10-23T17:24:40.165Z,68.27
2022-10-23T17:27:07.514Z,67.79
2022-10-23T17:29:35.186Z,67.87
2022-10-23T17:32:03.163Z,67.95
2022-10-23T17:34:30.527Z,68.08
2022-10-23T17:36:57.890Z,68.08
2022-10-23T17:39:28.474Z,68.62
2022-10-23T17:41:55.829Z,68.46
2022-10-23T17:44:23.161Z,68.15
2022-10-23T17:46:54.091Z,68.20
2022-10-23T17:49:21.994Z,68.41
2022-10-23T17:51:54.095Z,68.97
2022-10-23T17:54:21.802Z,68.54
2022-10-23T17:56:49.151Z,68.89
2022-10-23T17:59:17.502Z,68.79
2022-10-23T18:01:46.863Z,68.49
2022-10-23T18:04:14.648Z,68.14
2022-10-23T18:06:44.425Z,67.92
2022-10-23T18:09:11.969Z,68.43
2022-10-23T18:11:45.290Z,68.58
2022-10-23T18:14:16.110Z,68.60
2022-10-23T18:16:45.494Z,68.15
2022-10-23T18:19:13.476Z,67.63
2022-10-23T18:21:40.893Z,67.46
2022-10-23T18:24:08.505Z,68.21
2022-10-23T18:26:37.695Z,67.33
2022-10-23T18:29:07.500Z,68.45
2022-10-23T18:31:35.883Z,68.66
2022-10-23T18:34:07.823Z,68.23
2022-10-23T18:36:37.807Z,68.01
2022-10-23T18:39:05.837Z,67.42
2022-10-23T18:41:38.363Z,67.71
2022-10-23T18:44:05.959Z,67.51
2022-10-23T18:46:33.342Z,68.47
2022-10-23T18:49:00.737Z,68.61
2022-10-23T18:51:30.664Z,68.11
2022-10-23T18:54:00.200Z,67.95
2022-10-23T18:56:28.103Z,67.57
2022-10-23T18:58:59.930Z,68.45
2022-10-23T19:01:28.176Z,68.46
2022-10-23T19:06:30.524Z,67.78
2022-10-23T19:08:57.958Z,68.10
2022-10-23T19:11:25.561Z,68.23
2022-10-23T19:13:53.524Z,68.40
2022-10-23T19:16:29.448Z,68.12
2022-10-23T19:18:58.915Z,68.47
2022-10-23T19:21:31.112Z,68.48
2022-10-23T19:24:00.585Z,68.21
2022-10-23T19:26:27.936Z,67.50
2022-10-23T19:28:55.245Z,71.16
2022-10-23T19:31:23.524Z,69.68
2022-10-23T19:33:50.928Z,72.32
2022-10-23T19:36:22.358Z,70.74
2022-10-23T19:38:51.129Z,70.07
2022-10-23T19:41:18.903Z,69.19
2022-10-23T19:43:46.237Z,68.17
2022-10-23T19:46:13.813Z,70.86
2022-10-23T19:48:46.734Z,70.28
2022-10-23T19:51:14.371Z,70.02
2022-10-23T19:53:42.716Z,69.67
2022-10-23T19:56:11.209Z,69.64
2022-10-23T19:58:38.998Z,69.62
2022-10-23T20:01:08.058Z,69.70
2022-10-23T20:03:35.794Z,69.57
2022-10-23T20:06:03.248Z,69.40
2022-10-23T20:08:32.787Z,68.50
2022-10-23T20:11:02.853Z,69.19
2022-10-23T20:13:30.344Z,71.57
2022-10-23T20:15:57.654Z,71.11
2022-10-23T20:18:25.991Z,70.97
2022-10-23T20:20:53.631Z,70.76
2022-10-23T20:23:20.989Z,70.47
2022-10-23T20:25:48.597Z,69.93
2022-10-23T20:28:15.934Z,70.38
2022-10-23T20:30:45.445Z,70.56
2022-10-23T20:33:13.067Z,69.51
2022-10-23T20:35:41.071Z,70.15
2022-10-23T20:38:08.552Z,71.18
2022-10-23T20:40:36.146Z,69.69
2022-10-23T20:43:03.510Z,72.95
2022-10-23T20:45:30.837Z,74.20
2022-10-23T20:47:58.437Z,72.76
2022-10-23T20:50:25.774Z,72.94
2022-10-23T20:52:53.160Z,74.95
2022-10-23T20:55:20.753Z,72.80
2022-10-23T20:57:48.179Z,71.78
2022-10-23T21:00:15.639Z,71.76
2022-10-23T21:02:46.001Z,72.30
2022-10-23T21:05:15.969Z,71.77
2022-10-23T21:07:43.554Z,70.95
2022-10-23T21:10:10.894Z,70.03
2022-10-23T21:12:38.274Z,71.10
2022-10-23T21:15:06.920Z,70.61
2022-10-23T21:17:36.073Z,70.46
2022-10-23T21:20:03.724Z,71.72
2022-10-23T21:22:31.393Z,71.25
2022-10-23T21:25:00.128Z,70.81
2022-10-23T21:27:27.443Z,70.65
2022-10-23T21:29:55.062Z,70.08
2022-10-23T21:32:22.374Z,70.02
2022-10-23T21:34:49.716Z,70.12
2022-10-23T21:37:17.354Z,70.36
2022-10-23T21:39:44.724Z,70.42
2022-10-23T21:42:12.614Z,70.62
2022-10-23T21:44:40.227Z,75.78
2022-10-23T21:47:07.619Z,71.25
2022-10-23T21:49:34.975Z,70.87
2022-10-23T21:52:02.536Z,70.58
2022-10-23T21:54:29.880Z,70.05
2022-10-23T21:56:57.192Z,73.24
2022-10-23T21:59:27.843Z,74.86
2022-10-23T22:01:57.702Z,71.96
2022-10-23T22:04:25.400Z,71.67
2022-10-23T22:06:53.292Z,71.37
2022-10-23T22:09:21.022Z,70.70
2022-10-23T22:11:50.164Z,70.57
2022-10-23T22:14:17.585Z,70.53
2022-10-23T22:16:44.958Z,70.04
2022-10-23T22:19:13.470Z,69.90
2022-10-23T22:21:40.817Z,70.24
2022-10-23T22:24:08.228Z,69.72
2022-10-23T22:26:41.433Z,69.11
2022-10-23T22:29:22.744Z,70.82
2022-10-23T22:31:50.379Z,70.47
2022-10-23T22:34:27.063Z,72.05
2022-10-23T22:37:07.373Z,71.75
2022-10-23T22:39:34.716Z,70.96
2022-10-23T22:42:02.018Z,71.62
2022-10-23T22:44:29.730Z,71.64
2022-10-23T22:46:57.113Z,70.45
2022-10-23T22:49:24.449Z,69.79
2022-10-23T22:51:52.040Z,70.38
2022-10-23T22:54:19.725Z,70.31
2022-10-23T22:56:47.067Z,70.24
2022-10-23T22:59:14.655Z,70.40
2022-10-23T23:01:44.056Z,71.35
2022-10-23T23:04:26.224Z,71.34
2022-10-23T23:07:01.033Z,71.90
2022-10-23T23:09:28.378Z,74.07
2022-10-23T23:11:56.043Z,73.05
2022-10-23T23:14:24.549Z,72.22
2022-10-23T23:16:52.589Z,72.78
2022-10-23T23:19:20.026Z,71.69
2022-10-23T23:21:47.657Z,71.55
2022-10-23T23:24:15.042Z,74.25
2022-10-23T23:26:42.359Z,72.87
2022-10-23T23:29:09.960Z,72.35
2022-10-23T23:31:37.313Z,70.04
2022-10-23T23:34:04.641Z,72.89
2022-10-23T23:36:32.718Z,71.44
2022-10-23T23:39:00.093Z,70.55
2022-10-23T23:41:27.935Z,71.50
2022-10-23T23:43:56.344Z,73.60
2022-10-23T23:46:23.895Z,72.28
2022-10-23T23:48:51.218Z,73.27
2022-10-23T23:51:20.780Z,73.24
2022-10-23T23:53:48.587Z,75.01
2022-10-23T23:56:15.949Z,73.49
2022-10-23T23:58:43.550Z,72.06
